sensor_id;sensor_type;location;lat;lon;timestamp;P1;durP1;ratioP1;P2;durP2;ratioP2
8944;SDS011;4507;40.232;29.132;2023-07-22T00:00:48;16.37;;;11.40;;
8944;SDS011;4507;40.232;29.132;2023-07-22T00:03:18;14.43;;;10.87;;
8944;SDS011;4507;40.232;29.132;2023-07-22T00:05:47;13.07;;;9.70;;
8944;SDS011;4507;40.232;29.132;2023-07-22T00:08:17;20.30;;;11.67;;
8944;SDS011;4507;40.232;29.132;2023-07-22T00:10:47;18.13;;;11.77;;
8944;SDS011;4507;40.232;29.132;2023-07-22T00:13:19;15.40;;;11.40;;
8944;SDS011;4507;40.232;29.132;2023-07-22T00:15:48;18.03;;;11.63;;
8944;SDS011;4507;40.232;29.132;2023-07-22T00:18:18;21.00;;;12.03;;
8944;SDS011;4507;40.232;29.132;2023-07-22T00:20:47;15.17;;;11.93;;
8944;SDS011;4507;40.232;29.132;2023-07-22T00:23:34;29.27;;;13.87;;
8944;SDS011;4507;40.232;29.132;2023-07-22T00:26:04;34.37;;;13.83;;
8944;SDS011;4507;40.232;29.132;2023-07-22T00:28:35;28.77;;;13.10;;
8944;SDS011;4507;40.232;29.132;2023-07-22T00:31:04;21.70;;;12.67;;
8944;SDS011;4507;40.232;29.132;2023-07-22T00:33:34;25.23;;;12.80;;
8944;SDS011;4507;40.232;29.132;2023-07-22T00:36:03;21.27;;;14.00;;
8944;SDS011;4507;40.232;29.132;2023-07-22T00:38:32;20.00;;;14.50;;
8944;SDS011;4507;40.232;29.132;2023-07-22T00:41:02;23.07;;;15.03;;
8944;SDS011;4507;40.232;29.132;2023-07-22T00:43:32;25.40;;;15.13;;
8944;SDS011;4507;40.232;29.132;2023-07-22T00:46:02;21.90;;;15.30;;
8944;SDS011;4507;40.232;29.132;2023-07-22T00:48:32;23.27;;;15.07;;
8944;SDS011;4507;40.232;29.132;2023-07-22T00:51:01;25.83;;;14.43;;
8944;SDS011;4507;40.232;29.132;2023-07-22T00:53:31;20.50;;;15.80;;
8944;SDS011;4507;40.232;29.132;2023-07-22T00:56:01;20.00;;;15.70;;
8944;SDS011;4507;40.232;29.132;2023-07-22T00:58:31;21.53;;;15.40;;
8944;SDS011;4507;40.232;29.132;2023-07-22T01:01:00;20.40;;;14.37;;
8944;SDS011;4507;40.232;29.132;2023-07-22T01:03:50;23.63;;;14.70;;
8944;SDS011;4507;40.232;29.132;2023-07-22T01:06:19;20.30;;;15.23;;
8944;SDS011;4507;40.232;29.132;2023-07-22T01:08:49;18.63;;;14.80;;
8944;SDS011;4507;40.232;29.132;2023-07-22T01:11:18;30.53;;;15.00;;
8944;SDS011;4507;40.232;29.132;2023-07-22T01:13:47;39.07;;;15.53;;
8944;SDS011;4507;40.232;29.132;2023-07-22T01:16:18;29.73;;;16.13;;
8944;SDS011;4507;40.232;29.132;2023-07-22T01:18:47;23.23;;;14.47;;
8944;SDS011;4507;40.232;29.132;2023-07-22T01:21:17;21.40;;;13.77;;
8944;SDS011;4507;40.232;29.132;2023-07-22T01:23:49;19.00;;;14.37;;
8944;SDS011;4507;40.232;29.132;2023-07-22T01:26:19;25.73;;;15.50;;
8944;SDS011;4507;40.232;29.132;2023-07-22T01:28:49;22.93;;;14.60;;
8944;SDS011;4507;40.232;29.132;2023-07-22T01:31:18;22.00;;;14.53;;
8944;SDS011;4507;40.232;29.132;2023-07-22T01:33:47;20.97;;;14.67;;
8944;SDS011;4507;40.232;29.132;2023-07-22T01:36:35;18.67;;;14.70;;
8944;SDS011;4507;40.232;29.132;2023-07-22T01:39:06;19.10;;;14.27;;
8944;SDS011;4507;40.232;29.132;2023-07-22T01:41:36;25.80;;;12.93;;
8944;SDS011;4507;40.232;29.132;2023-07-22T01:44:05;20.63;;;13.63;;
8944;SDS011;4507;40.232;29.132;2023-07-22T01:46:35;17.40;;;13.87;;
8944;SDS011;4507;40.232;29.132;2023-07-22T01:49:09;18.37;;;13.87;;
8944;SDS011;4507;40.232;29.132;2023-07-22T01:51:40;16.93;;;13.33;;
8944;SDS011;4507;40.232;29.132;2023-07-22T01:54:11;17.67;;;13.13;;
8944;SDS011;4507;40.232;29.132;2023-07-22T01:56:40;18.87;;;12.70;;
8944;SDS011;4507;40.232;29.132;2023-07-22T01:59:10;20.83;;;13.43;;
8944;SDS011;4507;40.232;29.132;2023-07-22T02:01:39;20.70;;;13.90;;
8944;SDS011;4507;40.232;29.132;2023-07-22T02:04:09;18.27;;;13.87;;
8944;SDS011;4507;40.232;29.132;2023-07-22T02:06:39;18.53;;;13.10;;
8944;SDS011;4507;40.232;29.132;2023-07-22T02:09:08;19.30;;;14.10;;
8944;SDS011;4507;40.232;29.132;2023-07-22T02:11:42;26.73;;;13.77;;
8944;SDS011;4507;40.232;29.132;2023-07-22T02:14:11;19.73;;;13.53;;
8944;SDS011;4507;40.232;29.132;2023-07-22T02:16:41;23.03;;;15.23;;
8944;SDS011;4507;40.232;29.132;2023-07-22T02:19:10;20.70;;;15.00;;
8944;SDS011;4507;40.232;29.132;2023-07-22T02:21:40;21.53;;;14.77;;
8944;SDS011;4507;40.232;29.132;2023-07-22T02:24:09;20.43;;;14.93;;
8944;SDS011;4507;40.232;29.132;2023-07-22T02:26:39;23.37;;;14.50;;
8944;SDS011;4507;40.232;29.132;2023-07-22T02:29:09;18.87;;;13.60;;
8944;SDS011;4507;40.232;29.132;2023-07-22T02:31:39;19.13;;;13.50;;
8944;SDS011;4507;40.232;29.132;2023-07-22T02:34:08;20.77;;;14.00;;
8944;SDS011;4507;40.232;29.132;2023-07-22T02:36:37;26.77;;;13.43;;
8944;SDS011;4507;40.232;29.132;2023-07-22T02:39:06;17.17;;;12.77;;
8944;SDS011;4507;40.232;29.132;2023-07-22T02:41:36;24.00;;;14.13;;
8944;SDS011;4507;40.232;29.132;2023-07-22T02:44:05;25.17;;;13.93;;
8944;SDS011;4507;40.232;29.132;2023-07-22T02:46:36;21.03;;;13.20;;
8944;SDS011;4507;40.232;29.132;2023-07-22T02:49:05;22.03;;;12.80;;
8944;SDS011;4507;40.232;29.132;2023-07-22T02:51:34;23.67;;;14.30;;
8944;SDS011;4507;40.232;29.132;2023-07-22T02:54:03;15.87;;;13.37;;
8944;SDS011;4507;40.232;29.132;2023-07-22T02:56:32;25.70;;;14.13;;
8944;SDS011;4507;40.232;29.132;2023-07-22T02:59:01;31.20;;;13.57;;
8944;SDS011;4507;40.232;29.132;2023-07-22T03:01:31;19.23;;;12.97;;
8944;SDS011;4507;40.232;29.132;2023-07-22T03:04:02;31.70;;;13.00;;
8944;SDS011;4507;40.232;29.132;2023-07-22T03:06:31;23.40;;;13.47;;
8944;SDS011;4507;40.232;29.132;2023-07-22T03:09:00;19.97;;;13.07;;
8944;SDS011;4507;40.232;29.132;2023-07-22T03:11:31;22.77;;;12.37;;
8944;SDS011;4507;40.232;29.132;2023-07-22T03:14:01;17.63;;;12.20;;
8944;SDS011;4507;40.232;29.132;2023-07-22T03:16:30;28.97;;;12.23;;
8944;SDS011;4507;40.232;29.132;2023-07-22T03:18:59;22.03;;;11.30;;
8944;SDS011;4507;40.232;29.132;2023-07-22T03:21:30;23.93;;;11.70;;
8944;SDS011;4507;40.232;29.132;2023-07-22T03:23:59;18.57;;;11.30;;
8944;SDS011;4507;40.232;29.132;2023-07-22T03:26:28;16.87;;;11.43;;
8944;SDS011;4507;40.232;29.132;2023-07-22T03:29:15;20.97;;;11.03;;
8944;SDS011;4507;40.232;29.132;2023-07-22T03:31:44;18.90;;;11.50;;
8944;SDS011;4507;40.232;29.132;2023-07-22T03:34:15;17.13;;;11.07;;
8944;SDS011;4507;40.232;29.132;2023-07-22T03:36:44;20.43;;;11.33;;
8944;SDS011;4507;40.232;29.132;2023-07-22T03:39:13;20.30;;;11.17;;
8944;SDS011;4507;40.232;29.132;2023-07-22T03:41:42;20.27;;;11.37;;
8944;SDS011;4507;40.232;29.132;2023-07-22T03:44:11;25.80;;;11.50;;
8944;SDS011;4507;40.232;29.132;2023-07-22T03:46:40;27.53;;;12.83;;
8944;SDS011;4507;40.232;29.132;2023-07-22T03:49:09;34.07;;;12.50;;
8944;SDS011;4507;40.232;29.132;2023-07-22T03:51:39;26.30;;;12.00;;
8944;SDS011;4507;40.232;29.132;2023-07-22T03:54:08;23.73;;;11.53;;
8944;SDS011;4507;40.232;29.132;2023-07-22T03:56:39;33.97;;;12.30;;
8944;SDS011;4507;40.232;29.132;2023-07-22T03:59:09;19.67;;;12.83;;
8944;SDS011;4507;40.232;29.132;2023-07-22T04:01:38;21.90;;;13.33;;
8944;SDS011;4507;40.232;29.132;2023-07-22T04:04:07;23.20;;;15.13;;
8944;SDS011;4507;40.232;29.132;2023-07-22T04:06:36;28.90;;;16.93;;
8944;SDS011;4507;40.232;29.132;2023-07-22T04:09:07;31.57;;;17.10;;
8944;SDS011;4507;40.232;29.132;2023-07-22T04:11:36;31.10;;;16.40;;
8944;SDS011;4507;40.232;29.132;2023-07-22T04:14:05;30.83;;;16.57;;
8944;SDS011;4507;40.232;29.132;2023-07-22T04:16:36;26.57;;;15.33;;
8944;SDS011;4507;40.232;29.132;2023-07-22T04:19:15;28.73;;;14.93;;
8944;SDS011;4507;40.232;29.132;2023-07-22T04:21:44;33.50;;;14.77;;
8944;SDS011;4507;40.232;29.132;2023-07-22T04:24:15;29.77;;;13.53;;
8944;SDS011;4507;40.232;29.132;2023-07-22T04:26:45;30.03;;;13.47;;
8944;SDS011;4507;40.232;29.132;2023-07-22T04:29:14;27.23;;;14.23;;
8944;SDS011;4507;40.232;29.132;2023-07-22T04:31:42;26.17;;;14.83;;
8944;SDS011;4507;40.232;29.132;2023-07-22T04:34:12;35.87;;;17.10;;
8944;SDS011;4507;40.232;29.132;2023-07-22T04:36:41;36.93;;;17.07;;
8944;SDS011;4507;40.232;29.132;2023-07-22T04:39:10;38.17;;;19.10;;
8944;SDS011;4507;40.232;29.132;2023-07-22T04:41:40;39.20;;;19.47;;
8944;SDS011;4507;40.232;29.132;2023-07-22T04:44:09;31.63;;;19.27;;
8944;SDS011;4507;40.232;29.132;2023-07-22T04:46:38;31.80;;;20.67;;
8944;SDS011;4507;40.232;29.132;2023-07-22T04:49:07;41.47;;;21.27;;
8944;SDS011;4507;40.232;29.132;2023-07-22T04:51:36;40.63;;;21.07;;
8944;SDS011;4507;40.232;29.132;2023-07-22T04:54:05;46.00;;;22.03;;
8944;SDS011;4507;40.232;29.132;2023-07-22T04:56:34;43.27;;;23.10;;
8944;SDS011;4507;40.232;29.132;2023-07-22T04:59:04;50.30;;;23.93;;
8944;SDS011;4507;40.232;29.132;2023-07-22T05:01:33;38.87;;;24.47;;
8944;SDS011;4507;40.232;29.132;2023-07-22T05:04:03;50.93;;;25.43;;
8944;SDS011;4507;40.232;29.132;2023-07-22T05:06:33;38.60;;;24.77;;
8944;SDS011;4507;40.232;29.132;2023-07-22T05:09:02;38.97;;;26.13;;
8944;SDS011;4507;40.232;29.132;2023-07-22T05:11:31;63.67;;;28.27;;
8944;SDS011;4507;40.232;29.132;2023-07-22T05:14:00;47.23;;;23.60;;
8944;SDS011;4507;40.232;29.132;2023-07-22T05:16:31;37.67;;;19.27;;
8944;SDS011;4507;40.232;29.132;2023-07-22T05:19:00;55.57;;;18.67;;
8944;SDS011;4507;40.232;29.132;2023-07-22T05:21:29;24.87;;;13.50;;
8944;SDS011;4507;40.232;29.132;2023-07-22T05:23:58;49.30;;;16.93;;
8944;SDS011;4507;40.232;29.132;2023-07-22T05:26:27;42.47;;;14.90;;
8944;SDS011;4507;40.232;29.132;2023-07-22T05:28:56;31.10;;;13.57;;
8944;SDS011;4507;40.232;29.132;2023-07-22T05:31:25;28.30;;;13.60;;
8944;SDS011;4507;40.232;29.132;2023-07-22T05:34:14;31.93;;;12.70;;
8944;SDS011;4507;40.232;29.132;2023-07-22T05:36:43;31.30;;;12.80;;
8944;SDS011;4507;40.232;29.132;2023-07-22T05:39:13;34.13;;;13.50;;
8944;SDS011;4507;40.232;29.132;2023-07-22T05:41:49;21.03;;;12.30;;
8944;SDS011;4507;40.232;29.132;2023-07-22T05:44:18;32.30;;;16.67;;
8944;SDS011;4507;40.232;29.132;2023-07-22T05:46:47;44.97;;;24.73;;
8944;SDS011;4507;40.232;29.132;2023-07-22T05:49:17;45.23;;;19.17;;
8944;SDS011;4507;40.232;29.132;2023-07-22T05:52:05;37.87;;;20.43;;
8944;SDS011;4507;40.232;29.132;2023-07-22T05:54:34;29.50;;;18.07;;
8944;SDS011;4507;40.232;29.132;2023-07-22T05:57:22;43.07;;;16.97;;
8944;SDS011;4507;40.232;29.132;2023-07-22T05:59:51;53.83;;;19.20;;
8944;SDS011;4507;40.232;29.132;2023-07-22T06:02:40;31.97;;;17.27;;
8944;SDS011;4507;40.232;29.132;2023-07-22T06:05:10;24.60;;;16.53;;
8944;SDS011;4507;40.232;29.132;2023-07-22T06:07:39;34.20;;;16.70;;
8944;SDS011;4507;40.232;29.132;2023-07-22T06:10:09;38.47;;;17.27;;
8944;SDS011;4507;40.232;29.132;2023-07-22T06:12:39;21.10;;;16.60;;
8944;SDS011;4507;40.232;29.132;2023-07-22T06:15:28;28.87;;;16.70;;
8944;SDS011;4507;40.232;29.132;2023-07-22T06:17:57;30.10;;;16.40;;
8944;SDS011;4507;40.232;29.132;2023-07-22T06:20:27;32.70;;;16.90;;
8944;SDS011;4507;40.232;29.132;2023-07-22T06:22:57;33.90;;;16.40;;
8944;SDS011;4507;40.232;29.132;2023-07-22T06:25:25;46.73;;;17.77;;
8944;SDS011;4507;40.232;29.132;2023-07-22T06:27:55;32.50;;;18.00;;
8944;SDS011;4507;40.232;29.132;2023-07-22T06:30:24;26.03;;;17.40;;
8944;SDS011;4507;40.232;29.132;2023-07-22T06:32:52;30.03;;;18.00;;
8944;SDS011;4507;40.232;29.132;2023-07-22T06:35:23;24.30;;;18.60;;
8944;SDS011;4507;40.232;29.132;2023-07-22T06:37:53;27.70;;;18.47;;
8944;SDS011;4507;40.232;29.132;2023-07-22T06:40:23;41.60;;;17.83;;
8944;SDS011;4507;40.232;29.132;2023-07-22T06:42:52;30.23;;;17.87;;
8944;SDS011;4507;40.232;29.132;2023-07-22T06:45:21;23.20;;;18.70;;
8944;SDS011;4507;40.232;29.132;2023-07-22T06:47:50;114.50;;;24.00;;
8944;SDS011;4507;40.232;29.132;2023-07-22T06:50:19;30.07;;;18.73;;
8944;SDS011;4507;40.232;29.132;2023-07-22T06:52:48;34.13;;;18.53;;
8944;SDS011;4507;40.232;29.132;2023-07-22T06:55:19;27.50;;;18.03;;
8944;SDS011;4507;40.232;29.132;2023-07-22T06:57:48;38.97;;;18.70;;
8944;SDS011;4507;40.232;29.132;2023-07-22T07:00:17;32.90;;;18.00;;
8944;SDS011;4507;40.232;29.132;2023-07-22T07:02:46;25.03;;;17.17;;
8944;SDS011;4507;40.232;29.132;2023-07-22T07:05:15;24.23;;;17.70;;
8944;SDS011;4507;40.232;29.132;2023-07-22T07:07:44;32.20;;;18.27;;
8944;SDS011;4507;40.232;29.132;2023-07-22T07:10:13;35.80;;;17.50;;
8944;SDS011;4507;40.232;29.132;2023-07-22T07:12:44;40.80;;;20.00;;
8944;SDS011;4507;40.232;29.132;2023-07-22T07:15:13;40.90;;;20.83;;
8944;SDS011;4507;40.232;29.132;2023-07-22T07:17:42;59.97;;;22.23;;
8944;SDS011;4507;40.232;29.132;2023-07-22T07:20:13;48.30;;;20.80;;
8944;SDS011;4507;40.232;29.132;2023-07-22T07:22:42;36.43;;;20.60;;
8944;SDS011;4507;40.232;29.132;2023-07-22T07:25:11;34.33;;;19.80;;
8944;SDS011;4507;40.232;29.132;2023-07-22T07:27:43;40.67;;;21.10;;
8944;SDS011;4507;40.232;29.132;2023-07-22T07:30:12;49.90;;;20.20;;
8944;SDS011;4507;40.232;29.132;2023-07-22T07:32:41;31.57;;;17.90;;
8944;SDS011;4507;40.232;29.132;2023-07-22T07:35:10;39.23;;;17.93;;
8944;SDS011;4507;40.232;29.132;2023-07-22T07:37:39;33.27;;;17.03;;
8944;SDS011;4507;40.232;29.132;2023-07-22T07:40:08;39.07;;;15.63;;
8944;SDS011;4507;40.232;29.132;2023-07-22T07:42:38;31.57;;;13.90;;
8944;SDS011;4507;40.232;29.132;2023-07-22T07:45:27;26.07;;;13.57;;
8944;SDS011;4507;40.232;29.132;2023-07-22T07:48:03;23.00;;;12.27;;
8944;SDS011;4507;40.232;29.132;2023-07-22T07:50:37;37.13;;;13.57;;
8944;SDS011;4507;40.232;29.132;2023-07-22T07:53:10;28.67;;;12.73;;
8944;SDS011;4507;40.232;29.132;2023-07-22T07:55:41;27.63;;;15.07;;
8944;SDS011;4507;40.232;29.132;2023-07-22T07:58:11;21.93;;;12.70;;
8944;SDS011;4507;40.232;29.132;2023-07-22T08:00:41;35.03;;;12.80;;
8944;SDS011;4507;40.232;29.132;2023-07-22T08:03:10;20.83;;;11.73;;
8944;SDS011;4507;40.232;29.132;2023-07-22T08:05:39;25.43;;;13.07;;
8944;SDS011;4507;40.232;29.132;2023-07-22T08:08:08;28.77;;;13.17;;
8944;SDS011;4507;40.232;29.132;2023-07-22T08:10:37;25.60;;;12.40;;
8944;SDS011;4507;40.232;29.132;2023-07-22T08:13:06;19.03;;;11.50;;
8944;SDS011;4507;40.232;29.132;2023-07-22T08:15:35;35.73;;;10.40;;
8944;SDS011;4507;40.232;29.132;2023-07-22T08:18:05;22.50;;;11.17;;
8944;SDS011;4507;40.232;29.132;2023-07-22T08:20:34;21.50;;;11.37;;
8944;SDS011;4507;40.232;29.132;2023-07-22T08:23:03;17.33;;;10.47;;
8944;SDS011;4507;40.232;29.132;2023-07-22T08:25:32;24.47;;;11.33;;
8944;SDS011;4507;40.232;29.132;2023-07-22T08:28:01;24.40;;;9.87;;
8944;SDS011;4507;40.232;29.132;2023-07-22T08:30:31;21.90;;;11.60;;
8944;SDS011;4507;40.232;29.132;2023-07-22T08:33:00;21.63;;;11.23;;
8944;SDS011;4507;40.232;29.132;2023-07-22T08:35:30;18.23;;;11.10;;
8944;SDS011;4507;40.232;29.132;2023-07-22T08:38:00;25.80;;;12.67;;
8944;SDS011;4507;40.232;29.132;2023-07-22T08:40:32;17.83;;;12.07;;
8944;SDS011;4507;40.232;29.132;2023-07-22T08:43:03;34.17;;;11.87;;
8944;SDS011;4507;40.232;29.132;2023-07-22T08:45:33;30.77;;;12.23;;
8944;SDS011;4507;40.232;29.132;2023-07-22T08:48:05;20.53;;;11.97;;
8944;SDS011;4507;40.232;29.132;2023-07-22T08:50:40;21.57;;;12.20;;
8944;SDS011;4507;40.232;29.132;2023-07-22T08:53:12;28.87;;;14.77;;
8944;SDS011;4507;40.232;29.132;2023-07-22T08:55:41;28.57;;;14.63;;
8944;SDS011;4507;40.232;29.132;2023-07-22T08:58:11;22.27;;;14.87;;
8944;SDS011;4507;40.232;29.132;2023-07-22T09:00:41;25.50;;;14.87;;
8944;SDS011;4507;40.232;29.132;2023-07-22T09:03:11;19.10;;;13.63;;
8944;SDS011;4507;40.232;29.132;2023-07-22T09:05:42;27.97;;;14.23;;
8944;SDS011;4507;40.232;29.132;2023-07-22T09:08:13;23.33;;;13.10;;
8944;SDS011;4507;40.232;29.132;2023-07-22T09:10:44;23.53;;;13.10;;
8944;SDS011;4507;40.232;29.132;2023-07-22T09:13:14;24.47;;;12.83;;
8944;SDS011;4507;40.232;29.132;2023-07-22T09:15:43;17.60;;;12.00;;
8944;SDS011;4507;40.232;29.132;2023-07-22T09:18:14;25.50;;;12.07;;
8944;SDS011;4507;40.232;29.132;2023-07-22T09:20:45;18.20;;;11.50;;
8944;SDS011;4507;40.232;29.132;2023-07-22T09:23:14;21.10;;;12.07;;
8944;SDS011;4507;40.232;29.132;2023-07-22T09:25:43;19.20;;;11.97;;
8944;SDS011;4507;40.232;29.132;2023-07-22T09:28:12;20.53;;;10.73;;
8944;SDS011;4507;40.232;29.132;2023-07-22T09:30:41;15.57;;;10.27;;
8944;SDS011;4507;40.232;29.132;2023-07-22T09:33:20;16.87;;;9.77;;
8944;SDS011;4507;40.232;29.132;2023-07-22T09:35:53;22.23;;;10.83;;
8944;SDS011;4507;40.232;29.132;2023-07-22T09:38:23;25.30;;;10.93;;
8944;SDS011;4507;40.232;29.132;2023-07-22T09:40:53;17.77;;;10.13;;
8944;SDS011;4507;40.232;29.132;2023-07-22T09:43:23;25.03;;;10.27;;
8944;SDS011;4507;40.232;29.132;2023-07-22T09:45:52;20.10;;;10.97;;
8944;SDS011;4507;40.232;29.132;2023-07-22T09:48:21;18.10;;;10.40;;
8944;SDS011;4507;40.232;29.132;2023-07-22T09:50:57;14.40;;;9.52;;
8944;SDS011;4507;40.232;29.132;2023-07-22T09:53:26;19.58;;;9.63;;
8944;SDS011;4507;40.232;29.132;2023-07-22T09:55:55;16.17;;;9.68;;
8944;SDS011;4507;40.232;29.132;2023-07-22T09:58:32;15.73;;;9.77;;
8944;SDS011;4507;40.232;29.132;2023-07-22T10:01:01;15.52;;;9.88;;
8944;SDS011;4507;40.232;29.132;2023-07-22T10:03:31;23.95;;;9.90;;
8944;SDS011;4507;40.232;29.132;2023-07-22T10:06:04;20.13;;;10.43;;
8944;SDS011;4507;40.232;29.132;2023-07-22T10:08:35;19.98;;;11.02;;
8944;SDS011;4507;40.232;29.132;2023-07-22T10:11:05;24.40;;;10.27;;
8944;SDS011;4507;40.232;29.132;2023-07-22T10:13:37;33.10;;;11.32;;
8944;SDS011;4507;40.232;29.132;2023-07-22T10:16:07;14.82;;;9.27;;
8944;SDS011;4507;40.232;29.132;2023-07-22T10:18:37;17.73;;;9.38;;
8944;SDS011;4507;40.232;29.132;2023-07-22T10:21:11;18.02;;;9.35;;
8944;SDS011;4507;40.232;29.132;2023-07-22T10:23:42;27.23;;;9.35;;
8944;SDS011;4507;40.232;29.132;2023-07-22T10:26:12;18.48;;;8.90;;
8944;SDS011;4507;40.232;29.132;2023-07-22T10:28:45;21.88;;;10.23;;
8944;SDS011;4507;40.232;29.132;2023-07-22T10:31:15;23.05;;;9.93;;
8944;SDS011;4507;40.232;29.132;2023-07-22T10:33:49;17.95;;;9.52;;
8944;SDS011;4507;40.232;29.132;2023-07-22T10:36:21;23.17;;;10.68;;
8944;SDS011;4507;40.232;29.132;2023-07-22T10:38:57;18.98;;;9.98;;
8944;SDS011;4507;40.232;29.132;2023-07-22T10:41:49;19.00;;;10.30;;
8944;SDS011;4507;40.232;29.132;2023-07-22T10:44:25;19.05;;;10.55;;
8944;SDS011;4507;40.232;29.132;2023-07-22T10:46:56;26.60;;;10.30;;
8944;SDS011;4507;40.232;29.132;2023-07-22T10:49:27;13.43;;;8.73;;
8944;SDS011;4507;40.232;29.132;2023-07-22T10:52:13;13.73;;;9.35;;
8944;SDS011;4507;40.232;29.132;2023-07-22T10:54:42;24.02;;;10.77;;
8944;SDS011;4507;40.232;29.132;2023-07-22T10:57:23;14.80;;;9.98;;
8944;SDS011;4507;40.232;29.132;2023-07-22T10:59:53;25.67;;;10.05;;
8944;SDS011;4507;40.232;29.132;2023-07-22T11:02:24;15.98;;;9.00;;
8944;SDS011;4507;40.232;29.132;2023-07-22T11:04:55;16.15;;;9.63;;
8944;SDS011;4507;40.232;29.132;2023-07-22T11:07:31;10.35;;;8.10;;
8944;SDS011;4507;40.232;29.132;2023-07-22T11:10:13;15.18;;;8.07;;
8944;SDS011;4507;40.232;29.132;2023-07-22T11:12:44;42.33;;;10.43;;
8944;SDS011;4507;40.232;29.132;2023-07-22T11:15:14;19.88;;;8.77;;
8944;SDS011;4507;40.232;29.132;2023-07-22T11:17:44;15.85;;;8.98;;
8944;SDS011;4507;40.232;29.132;2023-07-22T11:20:13;21.75;;;8.18;;
8944;SDS011;4507;40.232;29.132;2023-07-22T11:22:44;14.80;;;7.95;;
8944;SDS011;4507;40.232;29.132;2023-07-22T11:25:16;19.13;;;9.82;;
8944;SDS011;4507;40.232;29.132;2023-07-22T11:27:46;19.23;;;8.35;;
8944;SDS011;4507;40.232;29.132;2023-07-22T11:30:15;11.18;;;7.50;;
8944;SDS011;4507;40.232;29.132;2023-07-22T11:32:44;18.60;;;7.72;;
8944;SDS011;4507;40.232;29.132;2023-07-22T11:35:17;9.05;;;6.68;;
8944;SDS011;4507;40.232;29.132;2023-07-22T11:37:48;13.10;;;7.50;;
8944;SDS011;4507;40.232;29.132;2023-07-22T11:40:32;18.75;;;8.23;;
8944;SDS011;4507;40.232;29.132;2023-07-22T11:43:02;19.73;;;7.72;;
8944;SDS011;4507;40.232;29.132;2023-07-22T11:45:31;15.05;;;7.30;;
8944;SDS011;4507;40.232;29.132;2023-07-22T11:48:00;16.88;;;6.82;;
8944;SDS011;4507;40.232;29.132;2023-07-22T11:50:32;14.80;;;6.32;;
8944;SDS011;4507;40.232;29.132;2023-07-22T11:53:03;13.07;;;6.63;;
8944;SDS011;4507;40.232;29.132;2023-07-22T11:55:34;15.05;;;6.63;;
8944;SDS011;4507;40.232;29.132;2023-07-22T11:58:07;16.63;;;7.15;;
8944;SDS011;4507;40.232;29.132;2023-07-22T12:00:36;14.13;;;6.57;;
8944;SDS011;4507;40.232;29.132;2023-07-22T12:03:08;14.10;;;6.68;;
8944;SDS011;4507;40.232;29.132;2023-07-22T12:05:37;11.57;;;7.07;;
8944;SDS011;4507;40.232;29.132;2023-07-22T12:08:07;21.67;;;7.15;;
8944;SDS011;4507;40.232;29.132;2023-07-22T12:10:43;10.52;;;5.90;;
8944;SDS011;4507;40.232;29.132;2023-07-22T12:13:12;14.40;;;5.18;;
8944;SDS011;4507;40.232;29.132;2023-07-22T12:15:41;13.30;;;6.25;;
8944;SDS011;4507;40.232;29.132;2023-07-22T12:18:10;24.15;;;5.38;;
8944;SDS011;4507;40.232;29.132;2023-07-22T12:20:38;9.98;;;4.95;;
8944;SDS011;4507;40.232;29.132;2023-07-22T12:23:10;10.48;;;4.93;;
8944;SDS011;4507;40.232;29.132;2023-07-22T12:25:39;15.68;;;4.30;;
8944;SDS011;4507;40.232;29.132;2023-07-22T12:28:08;5.90;;;3.60;;
8944;SDS011;4507;40.232;29.132;2023-07-22T12:30:37;8.60;;;4.35;;
8944;SDS011;4507;40.232;29.132;2023-07-22T12:33:06;12.10;;;4.50;;
8944;SDS011;4507;40.232;29.132;2023-07-22T12:35:35;11.40;;;4.90;;
8944;SDS011;4507;40.232;29.132;2023-07-22T12:38:04;11.70;;;4.95;;
8944;SDS011;4507;40.232;29.132;2023-07-22T12:40:35;16.17;;;4.35;;
8944;SDS011;4507;40.232;29.132;2023-07-22T12:43:04;26.20;;;6.57;;
8944;SDS011;4507;40.232;29.132;2023-07-22T12:45:33;15.52;;;4.63;;
8944;SDS011;4507;40.232;29.132;2023-07-22T12:48:02;9.73;;;4.43;;
8944;SDS011;4507;40.232;29.132;2023-07-22T12:50:32;13.40;;;4.22;;
8944;SDS011;4507;40.232;29.132;2023-07-22T12:53:01;8.13;;;4.13;;
8944;SDS011;4507;40.232;29.132;2023-07-22T12:55:30;12.75;;;4.40;;
8944;SDS011;4507;40.232;29.132;2023-07-22T12:58:01;16.23;;;4.68;;
8944;SDS011;4507;40.232;29.132;2023-07-22T13:00:30;12.45;;;4.60;;
8944;SDS011;4507;40.232;29.132;2023-07-22T13:02:59;11.88;;;4.43;;
8944;SDS011;4507;40.232;29.132;2023-07-22T13:05:28;14.70;;;4.00;;
8944;SDS011;4507;40.232;29.132;2023-07-22T13:07:57;8.25;;;3.88;;
8944;SDS011;4507;40.232;29.132;2023-07-22T13:10:28;8.68;;;4.05;;
8944;SDS011;4507;40.232;29.132;2023-07-22T13:12:58;9.20;;;4.22;;
8944;SDS011;4507;40.232;29.132;2023-07-22T13:15:29;9.80;;;4.30;;
8944;SDS011;4507;40.232;29.132;2023-07-22T13:17:58;11.20;;;3.40;;
8944;SDS011;4507;40.232;29.132;2023-07-22T13:20:27;32.85;;;6.13;;
8944;SDS011;4507;40.232;29.132;2023-07-22T13:22:56;11.43;;;4.30;;
8944;SDS011;4507;40.232;29.132;2023-07-22T13:25:26;12.05;;;3.67;;
8944;SDS011;4507;40.232;29.132;2023-07-22T13:27:55;17.45;;;5.03;;
8944;SDS011;4507;40.232;29.132;2023-07-22T13:30:25;11.38;;;4.70;;
8944;SDS011;4507;40.232;29.132;2023-07-22T13:32:54;11.02;;;4.22;;
8944;SDS011;4507;40.232;29.132;2023-07-22T13:35:23;11.82;;;4.53;;
8944;SDS011;4507;40.232;29.132;2023-07-22T13:37:52;7.18;;;3.63;;
8944;SDS011;4507;40.232;29.132;2023-07-22T13:40:21;11.52;;;3.83;;
8944;SDS011;4507;40.232;29.132;2023-07-22T13:42:50;12.88;;;3.90;;
8944;SDS011;4507;40.232;29.132;2023-07-22T13:45:19;8.70;;;3.40;;
8944;SDS011;4507;40.232;29.132;2023-07-22T13:47:49;9.82;;;4.05;;
8944;SDS011;4507;40.232;29.132;2023-07-22T13:50:18;9.13;;;3.80;;
8944;SDS011;4507;40.232;29.132;2023-07-22T13:52:49;10.07;;;3.72;;
8944;SDS011;4507;40.232;29.132;2023-07-22T13:55:18;5.18;;;3.35;;
8944;SDS011;4507;40.232;29.132;2023-07-22T13:57:47;13.43;;;4.00;;
8944;SDS011;4507;40.232;29.132;2023-07-22T14:00:16;11.98;;;3.95;;
8944;SDS011;4507;40.232;29.132;2023-07-22T14:02:45;14.25;;;4.10;;
8944;SDS011;4507;40.232;29.132;2023-07-22T14:05:16;14.52;;;3.80;;
8944;SDS011;4507;40.232;29.132;2023-07-22T14:07:45;8.02;;;3.83;;
8944;SDS011;4507;40.232;29.132;2023-07-22T14:10:14;9.27;;;3.53;;
8944;SDS011;4507;40.232;29.132;2023-07-22T14:12:43;11.75;;;3.72;;
8944;SDS011;4507;40.232;29.132;2023-07-22T14:15:12;10.88;;;3.65;;
8944;SDS011;4507;40.232;29.132;2023-07-22T14:17:41;8.30;;;3.90;;
8944;SDS011;4507;40.232;29.132;2023-07-22T14:20:11;10.27;;;4.00;;
8944;SDS011;4507;40.232;29.132;2023-07-22T14:22:42;8.82;;;3.40;;
8944;SDS011;4507;40.232;29.132;2023-07-22T14:25:11;11.70;;;4.40;;
8944;SDS011;4507;40.232;29.132;2023-07-22T14:27:41;34.15;;;5.45;;
8944;SDS011;4507;40.232;29.132;2023-07-22T14:30:10;23.40;;;4.35;;
8944;SDS011;4507;40.232;29.132;2023-07-22T14:32:39;20.45;;;4.43;;
8944;SDS011;4507;40.232;29.132;2023-07-22T14:39:16;11.13;;;4.25;;
8944;SDS011;4507;40.232;29.132;2023-07-22T14:41:45;13.45;;;3.72;;
8944;SDS011;4507;40.232;29.132;2023-07-22T14:44:14;11.90;;;4.07;;
8944;SDS011;4507;40.232;29.132;2023-07-22T14:46:43;8.30;;;4.05;;
8944;SDS011;4507;40.232;29.132;2023-07-22T14:49:13;9.63;;;4.40;;
8944;SDS011;4507;40.232;29.132;2023-07-22T14:51:42;7.45;;;4.22;;
8944;SDS011;4507;40.232;29.132;2023-07-22T14:54:11;9.70;;;4.05;;
8944;SDS011;4507;40.232;29.132;2023-07-22T14:56:41;12.18;;;4.57;;
8944;SDS011;4507;40.232;29.132;2023-07-22T14:59:13;10.35;;;4.18;;
8944;SDS011;4507;40.232;29.132;2023-07-22T15:01:43;8.73;;;4.47;;
8944;SDS011;4507;40.232;29.132;2023-07-22T15:04:12;15.55;;;4.88;;